Bangkok Bridge — 3FTZ8 — position and weather

sailwx.info

Track history (hours):
 
Tides and Currents Weather Stations Pressure Air Temp Water Temp Dewpoint Dewpoint Depression Visibility Wind Speed Wind Dir Waves Ship Positions

Bangkok Bridge

Last reported at 2015-May-04 23:32 UTC. Time now 2015-May-05 03:11 UTC.
Position N 34°52' E 140°19'.

Length 267 m; draft 12.5 m.

Type: Ship (hazmat cat A). MMSI: 353368000.

Date/timePositionNaut miles runAvg speedWind from/ knotsBaromVisibWave heightAir tempDewpointWater temp
2015-May-04 23:32N 34°52' E 140°19'2120.9
2015-May-04 22:33N 34°44' E 139°56'93421.6
2015-May-03 03:22N 29°41' E 122°32'1515.2
2015-May-03 02:24N 29°47' E 122°16'8 9.7
2015-May-03 01:33N 29°53' E 122°11'1110.9
2015-May-03 00:31N 29°58' E 121°59'7 7.6
2015-May-02 23:33N 29°57' E 121°50'0 0.0
2015-May-02 22:32N 29°57' E 121°50'0 0.0
2015-May-02 21:19N 29°57' E 121°50'0 0.0
2015-May-02 20:25N 29°57' E 121°50'0 0.0
2015-May-02 19:31N 29°57' E 121°50'0 0.0
2015-May-02 18:31N 29°57' E 121°50'0 0.0
2015-May-02 17:25N 29°57' E 121°50'0 0.0
2015-May-02 16:25N 29°57' E 121°50'0 0.0
2015-May-02 15:19N 29°57' E 121°50'0 0.0
2015-May-02 14:07N 29°57' E 121°50'0 0.0
2015-May-02 13:19N 29°57' E 121°50'0 0.0
2015-May-02 12:19N 29°57' E 121°50'0 0.0
2015-May-02 11:13N 29°57' E 121°50'0 0.0
2015-May-02 09:31N 29°57' E 121°50'0 0.0
2015-May-02 08:19N 29°57' E 121°50'0 0.0
2015-May-02 07:25N 29°57' E 121°50'0 0.1
2015-May-02 06:33N 29°57' E 121°50'2 2.1
2015-May-02 05:31N 29°57' E 121°53'0 0.1
2015-May-02 04:31N 29°57' E 121°53'0 0.2
2015-May-02 03:13N 29°57' E 121°52'0 0.1
2015-May-02 02:07N 29°57' E 121°52'0 0.1
2015-May-02 01:31N 29°57' E 121°53'0 0.1
2015-May-02 00:25N 29°57' E 121°52'0 0.1
2015-May-01 23:31N 29°57' E 121°53'0 0.1
2015-May-01 22:07N 29°57' E 121°53'0 0.1
2015-May-01 21:25N 29°57' E 121°53'0 0.1
2015-May-01 20:19N 29°57' E 121°53'0 0.0
2015-May-01 19:25N 29°57' E 121°53'0 0.0
2015-May-01 18:19N 29°57' E 121°53'0 0.1
2015-May-01 17:25N 29°57' E 121°53'0 0.1
2015-May-01 16:19N 29°57' E 121°53'0 0.2
2015-May-01 15:19N 29°57' E 121°53'0 0.0
2015-May-01 13:31N 29°57' E 121°52'0 0.1
2015-May-01 12:31N 29°57' E 121°53'0 0.0
2015-May-01 11:31N 29°57' E 121°53'0 0.3
2015-May-01 10:31N 29°57' E 121°53'0 0.1
2015-May-01 09:19N 29°57' E 121°53'0 0.0
2015-May-01 08:25N 29°57' E 121°53'1 0.6
2015-May-01 06:32N 29°57' E 121°54'1211.7
2015-May-01 05:33N 29°55' E 122°07'1211.6
2015-May-01 04:32N 29°47' E 122°17'1515.3
2015-May-01 03:32N 29°43' E 122°33'1818.0
2015-May-01 02:33N 29°52' E 122°51'80 9.8
2015-Apr-30 18:23N 31°06' E 122°19'1214.9
2015-Apr-30 17:33N 31°13' E 122°07'1414.1
2015-Apr-30 16:33N 31°16' E 121°51'1010.4
2015-Apr-30 15:33N 31°20' E 121°39'0 0.1
2015-Apr-30 14:31N 31°20' E 121°39'0 0.0
2015-Apr-30 13:31N 31°20' E 121°39'0 0.0
2015-Apr-30 12:31N 31°20' E 121°39'0 0.0
2015-Apr-30 11:31N 31°20' E 121°39'0 0.0
2015-Apr-30 10:22N 31°20' E 121°39'0 0.0
2015-Apr-30 09:31N 31°20' E 121°39'0 0.0
2015-Apr-30 08:31N 31°20' E 121°39'0 0.0
2015-Apr-30 07:28N 31°20' E 121°39'0 0.0
2015-Apr-30 06:31N 31°20' E 121°39'0 0.0
2015-Apr-30 05:25N 31°20' E 121°39'0 0.0
2015-Apr-30 04:31N 31°20' E 121°39'0 0.0
2015-Apr-30 03:28N 31°20' E 121°39'0 0.0
2015-Apr-30 02:28N 31°20' E 121°39'0 0.0
2015-Apr-30 01:31N 31°20' E 121°39'0 0.0
2015-Apr-30 00:28N 31°20' E 121°39'0 0.0
2015-Apr-29 23:31N 31°20' E 121°39'0 0.1
2015-Apr-29 22:31N 31°20' E 121°39'0 0.1
2015-Apr-29 21:31N 31°20' E 121°39'0 0.0
2015-Apr-29 20:28N 31°20' E 121°39'0 0.0
2015-Apr-29 19:31N 31°20' E 121°39'0 0.0
2015-Apr-29 18:31N 31°20' E 121°39'0 0.0
2015-Apr-29 17:28N 31°20' E 121°39'0 0.0
2015-Apr-29 16:31N 31°20' E 121°39'0 0.0
2015-Apr-29 15:31N 31°20' E 121°39'0 0.0
2015-Apr-29 14:31N 31°20' E 121°39'1 0.8
2015-Apr-29 13:34N 31°21' E 121°40'9 8.9
2015-Apr-29 12:33N 31°17' E 121°49'1010.0
2015-Apr-29 11:33N 31°15' E 122°01'1010.2
2015-Apr-29 10:33N 31°10' E 122°11'9 9.2
2015-Apr-29 09:34N 31°06' E 122°21'24 1.7
2015-Apr-28 19:17N 31°10' E 122°49'0 0.0
2015-Apr-28 13:26N 31°10' E 122°49'0 0.0
2015-Apr-27 22:29N 31°10' E 122°49'0 0.0
2015-Apr-27 10:32N 31°10' E 122°49'0 0.0
2015-Apr-27 09:32N 31°10' E 122°49'0 0.0
2015-Apr-27 04:29N 31°10' E 122°49'0 0.1
2015-Apr-27 03:26N 31°10' E 122°49'0 0.0
2015-Apr-27 02:05N 31°10' E 122°49'0 0.0
2015-Apr-27 01:29N 31°10' E 122°49'0 0.0
2015-Apr-26 20:29N 31°10' E 122°49'0 0.0
2015-Apr-26 19:08N 31°10' E 122°49'0 0.1
2015-Apr-26 15:17N 31°10' E 122°49'0 0.1
2015-Apr-26 14:31N 31°10' E 122°49'8 8.6
2015-Apr-26 13:33N 31°13' E 122°58'1514.3
2015-Apr-26 12:31N 31°26' E 123°06'1616.1
2015-Apr-26 11:30N 31°43' E 123°06'9713.6
2015-Apr-26 04:23N 33°19' E 122°52'1313.3
2015-Apr-26 03:24N 33°32' E 122°49'1212.9
2015-Apr-26 02:27N 33°44' E 122°47'1212.6
2015-Apr-26 01:31N 33°55' E 122°46'1312.6
2015-Apr-26 00:29N 34°08' E 122°43'1311.8
2015-Apr-25 23:22N 34°21' E 122°37'1012.7
2015-Apr-25 22:33N 34°28' E 122°28'1412.6
2015-Apr-25 21:28N 34°37' E 122°16'9513.3
2015-Apr-25 14:18N 35°44' E 120°53'1316.8
2015-Apr-25 13:33N 35°55' E 120°46'1616.1
2015-Apr-25 12:33N 35°60' E 120°27'1111.0
2015-Apr-25 11:33N 36°01' E 120°13'0 0.0
2015-Apr-25 01:32N 36°01' E 120°13'10 9.8
2015-Apr-25 00:33N 36°01' E 120°25'1111.3
2015-Apr-24 23:33N 35°58' E 120°39'  
Track history (hours):
 
Tides and Currents Weather Stations Pressure Air Temp Water Temp Dewpoint Dewpoint Depression Visibility Wind Speed Wind Dir Waves Ship Positions

Bangkok Bridge

Last reported at 2015-May-04 23:32 UTC. Time now 2015-May-05 03:11 UTC.
Position N 34°52' E 140°19'.

Length 267 m; draft 12.5 m.

Type: Ship (hazmat cat A). MMSI: 353368000.

Date/timePositionNaut miles runAvg speedWind from/ knotsBaromVisibWave heightAir tempDewpointWater temp
2015-May-04 23:32N 34°52' E 140°19'2120.9
2015-May-04 22:33N 34°44' E 139°56'93421.6
2015-May-03 03:22N 29°41' E 122°32'1515.2
2015-May-03 02:24N 29°47' E 122°16'8 9.7
2015-May-03 01:33N 29°53' E 122°11'1110.9
2015-May-03 00:31N 29°58' E 121°59'7 7.6
2015-May-02 23:33N 29°57' E 121°50'0 0.0
2015-May-02 22:32N 29°57' E 121°50'0 0.0
2015-May-02 21:19N 29°57' E 121°50'0 0.0
2015-May-02 20:25N 29°57' E 121°50'0 0.0
2015-May-02 19:31N 29°57' E 121°50'0 0.0
2015-May-02 18:31N 29°57' E 121°50'0 0.0
2015-May-02 17:25N 29°57' E 121°50'0 0.0
2015-May-02 16:25N 29°57' E 121°50'0 0.0
2015-May-02 15:19N 29°57' E 121°50'0 0.0
2015-May-02 14:07N 29°57' E 121°50'0 0.0
2015-May-02 13:19N 29°57' E 121°50'0 0.0
2015-May-02 12:19N 29°57' E 121°50'0 0.0
2015-May-02 11:13N 29°57' E 121°50'0 0.0
2015-May-02 09:31N 29°57' E 121°50'0 0.0
2015-May-02 08:19N 29°57' E 121°50'0 0.0
2015-May-02 07:25N 29°57' E 121°50'0 0.1
2015-May-02 06:33N 29°57' E 121°50'2 2.1
2015-May-02 05:31N 29°57' E 121°53'0 0.1
2015-May-02 04:31N 29°57' E 121°53'0 0.2
2015-May-02 03:13N 29°57' E 121°52'0 0.1
2015-May-02 02:07N 29°57' E 121°52'0 0.1
2015-May-02 01:31N 29°57' E 121°53'0 0.1
2015-May-02 00:25N 29°57' E 121°52'0 0.1
2015-May-01 23:31N 29°57' E 121°53'0 0.1
2015-May-01 22:07N 29°57' E 121°53'0 0.1
2015-May-01 21:25N 29°57' E 121°53'0 0.1
2015-May-01 20:19N 29°57' E 121°53'0 0.0
2015-May-01 19:25N 29°57' E 121°53'0 0.0
2015-May-01 18:19N 29°57' E 121°53'0 0.1
2015-May-01 17:25N 29°57' E 121°53'0 0.1
2015-May-01 16:19N 29°57' E 121°53'0 0.2
2015-May-01 15:19N 29°57' E 121°53'0 0.0
2015-May-01 13:31N 29°57' E 121°52'0 0.1
2015-May-01 12:31N 29°57' E 121°53'0 0.0
2015-May-01 11:31N 29°57' E 121°53'0 0.3
2015-May-01 10:31N 29°57' E 121°53'0 0.1
2015-May-01 09:19N 29°57' E 121°53'0 0.0
2015-May-01 08:25N 29°57' E 121°53'1 0.6
2015-May-01 06:32N 29°57' E 121°54'1211.7
2015-May-01 05:33N 29°55' E 122°07'1211.6
2015-May-01 04:32N 29°47' E 122°17'1515.3
2015-May-01 03:32N 29°43' E 122°33'1818.0
2015-May-01 02:33N 29°52' E 122°51'80 9.8
2015-Apr-30 18:23N 31°06' E 122°19'1214.9
2015-Apr-30 17:33N 31°13' E 122°07'1414.1
2015-Apr-30 16:33N 31°16' E 121°51'1010.4
2015-Apr-30 15:33N 31°20' E 121°39'0 0.1
2015-Apr-30 14:31N 31°20' E 121°39'0 0.0
2015-Apr-30 13:31N 31°20' E 121°39'0 0.0
2015-Apr-30 12:31N 31°20' E 121°39'0 0.0
2015-Apr-30 11:31N 31°20' E 121°39'0 0.0
2015-Apr-30 10:22N 31°20' E 121°39'0 0.0
2015-Apr-30 09:31N 31°20' E 121°39'0 0.0
2015-Apr-30 08:31N 31°20' E 121°39'0 0.0
2015-Apr-30 07:28N 31°20' E 121°39'0 0.0
2015-Apr-30 06:31N 31°20' E 121°39'0 0.0
2015-Apr-30 05:25N 31°20' E 121°39'0 0.0
2015-Apr-30 04:31N 31°20' E 121°39'0 0.0
2015-Apr-30 03:28N 31°20' E 121°39'0 0.0
2015-Apr-30 02:28N 31°20' E 121°39'0 0.0
2015-Apr-30 01:31N 31°20' E 121°39'0 0.0
2015-Apr-30 00:28N 31°20' E 121°39'0 0.0
2015-Apr-29 23:31N 31°20' E 121°39'0 0.1
2015-Apr-29 22:31N 31°20' E 121°39'0 0.1
2015-Apr-29 21:31N 31°20' E 121°39'0 0.0
2015-Apr-29 20:28N 31°20' E 121°39'0 0.0
2015-Apr-29 19:31N 31°20' E 121°39'0 0.0
2015-Apr-29 18:31N 31°20' E 121°39'0 0.0
2015-Apr-29 17:28N 31°20' E 121°39'0 0.0
2015-Apr-29 16:31N 31°20' E 121°39'0 0.0
2015-Apr-29 15:31N 31°20' E 121°39'0 0.0
2015-Apr-29 14:31N 31°20' E 121°39'1 0.8
2015-Apr-29 13:34N 31°21' E 121°40'9 8.9
2015-Apr-29 12:33N 31°17' E 121°49'1010.0
2015-Apr-29 11:33N 31°15' E 122°01'1010.2
2015-Apr-29 10:33N 31°10' E 122°11'9 9.2
2015-Apr-29 09:34N 31°06' E 122°21'24 1.7
2015-Apr-28 19:17N 31°10' E 122°49'0 0.0
2015-Apr-28 13:26N 31°10' E 122°49'0 0.0
2015-Apr-27 22:29N 31°10' E 122°49'0 0.0
2015-Apr-27 10:32N 31°10' E 122°49'0 0.0
2015-Apr-27 09:32N 31°10' E 122°49'0 0.0
2015-Apr-27 04:29N 31°10' E 122°49'0 0.1
2015-Apr-27 03:26N 31°10' E 122°49'0 0.0
2015-Apr-27 02:05N 31°10' E 122°49'0 0.0
2015-Apr-27 01:29N 31°10' E 122°49'0 0.0
2015-Apr-26 20:29N 31°10' E 122°49'0 0.0
2015-Apr-26 19:08N 31°10' E 122°49'0 0.1
2015-Apr-26 15:17N 31°10' E 122°49'0 0.1
2015-Apr-26 14:31N 31°10' E 122°49'8 8.6
2015-Apr-26 13:33N 31°13' E 122°58'1514.3
2015-Apr-26 12:31N 31°26' E 123°06'1616.1
2015-Apr-26 11:30N 31°43' E 123°06'9713.6
2015-Apr-26 04:23N 33°19' E 122°52'1313.3
2015-Apr-26 03:24N 33°32' E 122°49'1212.9
2015-Apr-26 02:27N 33°44' E 122°47'1212.6
2015-Apr-26 01:31N 33°55' E 122°46'1312.6
2015-Apr-26 00:29N 34°08' E 122°43'1311.8
2015-Apr-25 23:22N 34°21' E 122°37'1012.7
2015-Apr-25 22:33N 34°28' E 122°28'1412.6
2015-Apr-25 21:28N 34°37' E 122°16'9513.3
2015-Apr-25 14:18N 35°44' E 120°53'1316.8
2015-Apr-25 13:33N 35°55' E 120°46'1616.1
2015-Apr-25 12:33N 35°60' E 120°27'1111.0
2015-Apr-25 11:33N 36°01' E 120°13'0 0.0
2015-Apr-25 01:32N 36°01' E 120°13'10 9.8
2015-Apr-25 00:33N 36°01' E 120°25'1111.3
2015-Apr-24 23:33N 35°58' E 120°39'  

Dump ship's entire track history